KDCU/DCU METAR and TAF weather

Enter ICAO airport designator
Station Type Date Time Source
KDCU METAR 2019/05/25 15:53 UTC NOAA

KDCU 251553Z AUTO VRB06KT 9SM CLR 31/20 A3019 RMK AO2 SLP215 T03060200


Station Type Date Time Source
KDCU Decoded METAR 2019/05/25 15:53 UTC NOAA

PRYOR FIELD, AL, United States (KDCU) 34-39N 086-57W 176M
May 25, 2019 - 11:53 AM EDT / 2019.05.25 1553 UTC
Wind: Variable at 7 MPH (6 KT):0
Visibility: 9 mile(s):0
Sky conditions: clear
Temperature: 87.1 F (30.6 C)
Dew Point: 68.0 F (20.0 C)
Relative Humidity: 53%
Pressure (altimeter): 30.19 in. Hg (1022 hPa)
ob: KDCU 251553Z AUTO VRB06KT 9SM CLR 31/20 A3019 RMK AO2 SLP215 T03060200
cycle: 16

Station Type Date Time Source
KDCU TAF UTC NOAA

Error!

Example: see airport list